createdAt,value
2022-09-07T00:02:20.572Z,100492.84
2022-09-07T00:04:47.090Z,100491.34
2022-09-07T00:07:13.844Z,100499.69
2022-09-07T00:09:40.356Z,100492.72
2022-09-07T00:12:06.940Z,100499.56
2022-09-07T00:14:34.453Z,100497.19
2022-09-07T00:17:01.005Z,100489.38
2022-09-07T00:19:27.590Z,100492.19
2022-09-07T00:21:54.094Z,100491.88
2022-09-07T00:24:20.732Z,100486.13
2022-09-07T00:26:47.215Z,100485.75
2022-09-07T00:29:13.758Z,100480.31
2022-09-07T00:31:40.340Z,100479.66
2022-09-07T00:34:07.308Z,100491.44
2022-09-07T00:36:33.853Z,100473.81
2022-09-07T00:39:00.413Z,100477.34
2022-09-07T00:41:27.966Z,100476.06
2022-09-07T00:44:00.006Z,100477.13
2022-09-07T00:46:29.540Z,100484.00
2022-09-07T00:49:05.551Z,100473.59
2022-09-07T00:51:39.532Z,100477.75
2022-09-07T00:54:10.773Z,100472.00
2022-09-07T00:56:42.454Z,100476.56
2022-09-07T00:59:13.826Z,100476.41
2022-09-07T01:01:40.635Z,100478.56
2022-09-07T01:04:08.251Z,100476.25
2022-09-07T01:06:38.101Z,100470.50
2022-09-07T01:09:10.212Z,100466.84
2022-09-07T01:11:37.508Z,100472.44
2022-09-07T01:14:06.892Z,100477.38
2022-09-07T01:16:45.615Z,100477.19
2022-09-07T01:19:49.386Z,100482.63
2022-09-07T01:22:34.478Z,100479.22
2022-09-07T01:25:33.135Z,100474.50
2022-09-07T01:28:05.726Z,100469.72
2022-09-07T01:30:37.606Z,100476.19
2022-09-07T01:33:30.078Z,100475.06
2022-09-07T01:36:11.843Z,100467.44
2022-09-07T01:38:44.422Z,100465.06
2022-09-07T01:41:38.406Z,100460.19
2022-09-07T01:44:12.109Z,100458.84
2022-09-07T01:46:52.583Z,100457.97
2022-09-07T01:49:27.162Z,100451.88
2022-09-07T01:52:00.957Z,100452.75
2022-09-07T01:54:33.344Z,100446.25
2022-09-07T01:57:10.254Z,100449.16
2022-09-07T01:59:51.868Z,100449.72
2022-09-07T02:02:24.459Z,100454.47
2022-09-07T02:05:01.484Z,100451.75
2022-09-07T02:07:33.886Z,100454.66
2022-09-07T02:10:11.235Z,100449.72
2022-09-07T02:13:03.310Z,100449.38
2022-09-07T02:15:41.708Z,100449.22
2022-09-07T02:18:10.596Z,100441.41
2022-09-07T02:20:38.971Z,100442.59
2022-09-07T02:23:20.926Z,100445.66
2022-09-07T02:25:53.631Z,100443.78
2022-09-07T02:28:27.807Z,100438.88
2022-09-07T02:30:54.474Z,100433.94
2022-09-07T02:33:21.569Z,100437.03
2022-09-07T02:35:48.267Z,100436.66
2022-09-07T02:38:14.869Z,100435.44
2022-09-07T02:40:41.403Z,100429.34
2022-09-07T02:43:10.364Z,100429.69
2022-09-07T02:45:48.195Z,100427.63
2022-09-07T02:48:40.890Z,100419.84
2022-09-07T02:51:28.898Z,100419.19
2022-09-07T02:54:21.066Z,100416.81
2022-09-07T02:57:03.279Z,100415.59
2022-09-07T02:59:38.767Z,100416.47
2022-09-07T03:02:20.853Z,100415.94
2022-09-07T03:05:11.731Z,100409.50
2022-09-07T03:07:45.275Z,100405.94
2022-09-07T03:10:14.858Z,100415.13
2022-09-07T03:12:47.473Z,100412.88
2022-09-07T03:15:20.630Z,100419.34
2022-09-07T03:17:47.240Z,100412.53
2022-09-07T03:20:14.653Z,100414.56
2022-09-07T03:22:41.196Z,100411.84
2022-09-07T03:25:08.154Z,100418.50
2022-09-07T03:27:34.744Z,100414.75
2022-09-07T03:30:02.072Z,100418.50
2022-09-07T03:32:33.118Z,100419.22
2022-09-07T03:35:00.652Z,100414.47
2022-09-07T03:37:27.540Z,100417.34
2022-09-07T03:39:54.198Z,100421.63
2022-09-07T03:42:21.467Z,100418.91
2022-09-07T03:44:51.066Z,100426.38
2022-09-07T03:47:18.255Z,100425.53
2022-09-07T03:49:44.825Z,100430.81
2022-09-07T03:52:12.143Z,100422.16
2022-09-07T03:54:39.798Z,100423.53
2022-09-07T03:57:07.169Z,100427.63
2022-09-07T03:59:33.829Z,100437.50
2022-09-07T04:02:00.760Z,100431.34
2022-09-07T04:04:27.714Z,100443.75
2022-09-07T04:06:54.494Z,100448.47
2022-09-07T04:09:21.113Z,100440.03
2022-09-07T04:11:47.641Z,100438.16
2022-09-07T04:14:14.283Z,100445.47
2022-09-07T04:16:41.065Z,100445.81
2022-09-07T04:19:07.598Z,100436.78
2022-09-07T04:21:34.373Z,100441.41
2022-09-07T04:24:01.018Z,100437.34
2022-09-07T04:26:33.975Z,100441.75
2022-09-07T04:29:01.218Z,100444.47
2022-09-07T04:31:27.828Z,100449.38
2022-09-07T04:33:55.129Z,100449.56
2022-09-07T04:36:22.606Z,100455.31
2022-09-07T04:38:55.308Z,100448.03
2022-09-07T04:41:23.388Z,100446.84
2022-09-07T04:43:53.593Z,100447.38
2022-09-07T04:46:21.983Z,100452.81
2022-09-07T04:48:49.948Z,100461.63
2022-09-07T04:51:19.551Z,100459.56
2022-09-07T04:53:49.704Z,100459.06
2022-09-07T04:56:17.695Z,100458.88
2022-09-07T04:58:45.330Z,100467.50
2022-09-07T05:01:14.275Z,100471.09
2022-09-07T05:03:42.094Z,100469.88
2022-09-07T05:06:09.105Z,100462.22
2022-09-07T05:08:37.097Z,100463.25
2022-09-07T05:11:04.452Z,100457.44
2022-09-07T05:13:31.911Z,100459.44
2022-09-07T05:15:59.802Z,100456.06
2022-09-07T05:18:27.010Z,100463.66
2022-09-07T05:20:53.644Z,100467.31
2022-09-07T05:23:20.444Z,100467.31
2022-09-07T05:25:47.291Z,100472.38
2022-09-07T05:28:18.633Z,100466.09
2022-09-07T05:36:20.610Z,100480.09
2022-09-07T05:38:47.647Z,100485.38
2022-09-07T05:41:17.185Z,100488.56
2022-09-07T05:46:31.703Z,100485.22
2022-09-07T05:48:58.305Z,100488.56
2022-09-07T05:51:24.895Z,100476.19
2022-09-07T05:53:51.448Z,100479.22
2022-09-07T05:56:18.063Z,100479.03
2022-09-07T05:58:49.128Z,100482.38
2022-09-07T06:01:16.863Z,100486.41
2022-09-07T06:03:44.503Z,100490.94
2022-09-07T06:06:14.470Z,100487.00
2022-09-07T06:08:49.150Z,100482.72
2022-09-07T06:11:21.999Z,100492.88
2022-09-07T06:13:48.950Z,100500.84
2022-09-07T06:16:16.743Z,100499.25
2022-09-07T06:18:45.363Z,100487.22
2022-09-07T06:21:14.845Z,100484.78
2022-09-07T06:23:42.737Z,100484.25
2022-09-07T06:26:10.028Z,100490.97
2022-09-07T06:28:39.354Z,100481.22
2022-09-07T06:31:08.443Z,100490.69
2022-09-07T06:33:36.216Z,100492.88
2022-09-07T06:36:11.519Z,100478.28
2022-09-07T06:38:38.908Z,100479.22
2022-09-07T06:43:57.822Z,100487.78
2022-09-07T06:49:11.500Z,100480.41
2022-09-07T06:51:38.802Z,100479.00
2022-09-07T06:56:52.063Z,100481.69
2022-09-07T06:59:18.659Z,100476.28
2022-09-07T07:01:45.178Z,100480.72
2022-09-07T07:04:11.815Z,100481.63
2022-09-07T07:06:39.532Z,100477.06
2022-09-07T07:09:08.330Z,100480.44
2022-09-07T07:11:37.217Z,100476.75
2022-09-07T07:14:04.448Z,100482.84
2022-09-07T07:16:31.394Z,100488.78
2022-09-07T07:18:58.251Z,100487.56
2022-09-07T07:21:24.913Z,100493.91
2022-09-07T07:23:53.104Z,100487.09
2022-09-07T07:26:26.827Z,100484.28
2022-09-07T07:31:27.285Z,100486.53
2022-09-07T07:33:53.961Z,100484.09
2022-09-07T07:36:22.774Z,100480.16
2022-09-07T07:38:59.203Z,100475.16
2022-09-07T07:44:18.233Z,100481.81
2022-09-07T07:46:48.151Z,100477.88
2022-09-07T07:49:14.743Z,100475.19
2022-09-07T07:54:27.834Z,100480.09
2022-09-07T07:56:54.360Z,100475.06
2022-09-07T07:59:21.078Z,100473.38
2022-09-07T08:01:47.729Z,100470.88
2022-09-07T08:04:14.317Z,100469.88
2022-09-07T08:06:43.734Z,100473.47
2022-09-07T08:09:11.967Z,100480.19
2022-09-07T08:11:40.221Z,100475.34
2022-09-07T08:14:09.802Z,100475.53
2022-09-07T08:16:36.666Z,100480.16
2022-09-07T08:19:03.505Z,100474.44
2022-09-07T08:21:30.120Z,100481.44
2022-09-07T08:23:56.881Z,100480.97
2022-09-07T08:26:23.378Z,100468.69
2022-09-07T08:28:50.052Z,100464.88
2022-09-07T08:31:17.762Z,100458.06
2022-09-07T08:33:44.736Z,100461.16
2022-09-07T08:36:19.370Z,100458.38
2022-09-07T08:38:46.675Z,100450.88
2022-09-07T08:41:34.425Z,100449.97
2022-09-07T08:44:11.878Z,100450.03
2022-09-07T08:46:45.476Z,100456.28
2022-09-07T08:49:25.991Z,100458.53
2022-09-07T08:52:00.944Z,100461.63
2022-09-07T08:54:27.677Z,100466.03
2022-09-07T09:00:07.995Z,100453.31
2022-09-07T09:02:38.818Z,100452.31
2022-09-07T09:05:42.881Z,100444.75
2022-09-07T09:08:19.455Z,100440.78
2022-09-07T09:11:10.743Z,100436.34
2022-09-07T09:14:03.228Z,100446.09
2022-09-07T09:16:53.066Z,100454.28
2022-09-07T09:19:52.797Z,100449.28
2022-09-07T09:22:22.094Z,100443.72
2022-09-07T09:25:07.540Z,100445.28
2022-09-07T09:27:34.072Z,100449.66
2022-09-07T09:30:00.560Z,100440.34
2022-09-07T09:32:47.128Z,100437.34
2022-09-07T09:35:19.763Z,100428.00
2022-09-07T09:37:46.632Z,100425.88
2022-09-07T09:40:51.361Z,100419.84
2022-09-07T09:43:20.088Z,100425.09
2022-09-07T09:48:40.021Z,100418.66
2022-09-07T09:53:57.246Z,100415.28
2022-09-07T09:56:37.184Z,100421.03
2022-09-07T10:05:46.579Z,100410.03
2022-09-07T10:08:26.941Z,100415.31
2022-09-07T10:10:58.366Z,100418.53
2022-09-07T10:13:31.841Z,100402.19
2022-09-07T10:16:07.113Z,100407.28
2022-09-07T10:18:37.793Z,100396.56
2022-09-07T10:21:25.553Z,100396.34
2022-09-07T10:23:58.343Z,100392.16
2022-09-07T10:26:36.345Z,100392.75
2022-09-07T10:29:15.236Z,100398.72
2022-09-07T10:32:09.793Z,100395.56
2022-09-07T10:34:48.069Z,100395.13
2022-09-07T10:37:49.335Z,100386.66
2022-09-07T10:40:31.725Z,100382.84
2022-09-07T10:43:22.776Z,100379.13
2022-09-07T10:46:07.837Z,100383.97
2022-09-07T10:48:46.961Z,100381.34
2022-09-07T10:51:22.298Z,100382.53
2022-09-07T10:57:06.281Z,100384.97
2022-09-07T11:00:11.549Z,100381.13
2022-09-07T11:03:26.104Z,100379.41
2022-09-07T11:06:06.468Z,100381.06
2022-09-07T11:09:21.713Z,100382.94
2022-09-07T11:12:09.253Z,100372.84
2022-09-07T11:14:48.377Z,100370.16
2022-09-07T11:17:23.311Z,100369.13
2022-09-07T11:20:02.373Z,100366.38
2022-09-07T11:22:44.977Z,100356.34
2022-09-07T11:25:30.110Z,100356.13
2022-09-07T11:28:02.670Z,100363.38
2022-09-07T11:30:41.528Z,100364.72
2022-09-07T11:33:33.146Z,100357.22
2022-09-07T11:36:12.564Z,100354.19
2022-09-07T11:38:45.064Z,100349.69
2022-09-07T11:41:19.934Z,100353.31
2022-09-07T11:43:50.703Z,100358.03
2022-09-07T11:46:32.301Z,100351.88
2022-09-07T11:48:59.763Z,100338.56
2022-09-07T11:51:38.926Z,100352.25
2022-09-07T11:54:25.186Z,100346.16
2022-09-07T11:57:01.538Z,100341.13
2022-09-07T12:00:08.440Z,100348.09
2022-09-07T12:03:00.906Z,100338.63
2022-09-07T12:05:43.177Z,100335.50
2022-09-07T12:08:34.008Z,100337.94
2022-09-07T12:11:08.499Z,100330.69
2022-09-07T12:14:11.386Z,100335.16
2022-09-07T12:16:43.979Z,100328.78
2022-09-07T12:19:22.694Z,100327.53
2022-09-07T12:21:51.923Z,100328.06
2022-09-07T12:24:33.685Z,100325.88
2022-09-07T12:27:01.001Z,100325.00
2022-09-07T12:29:30.124Z,100320.94
2022-09-07T12:32:07.411Z,100322.81
2022-09-07T12:34:54.127Z,100323.91
2022-09-07T12:37:26.768Z,100335.09
2022-09-07T12:40:33.076Z,100320.25
2022-09-07T12:43:14.628Z,100329.44
2022-09-07T12:45:41.943Z,100329.06
2022-09-07T12:48:17.302Z,100320.84
2022-09-07T12:50:59.062Z,100317.66
2022-09-07T12:53:25.567Z,100313.28
2022-09-07T12:59:22.809Z,100307.75
2022-09-07T13:02:26.902Z,100303.31
2022-09-07T13:05:21.183Z,100305.34
2022-09-07T13:08:24.817Z,100295.25
2022-09-07T13:10:51.502Z,100302.22
2022-09-07T13:16:10.585Z,100293.63
2022-09-07T13:18:41.777Z,100292.56
2022-09-07T13:21:08.318Z,100295.19
2022-09-07T13:23:40.192Z,100287.50
2022-09-07T13:26:10.709Z,100281.34
2022-09-07T13:28:58.255Z,100279.47
2022-09-07T13:31:45.394Z,100284.53
2022-09-07T13:34:33.716Z,100274.53
2022-09-07T13:37:02.020Z,100274.38
2022-09-07T13:39:31.017Z,100269.09
2022-09-07T13:41:59.967Z,100268.94
2022-09-07T13:44:31.395Z,100262.16
2022-09-07T13:47:22.689Z,100259.66
2022-09-07T13:50:05.517Z,100263.34
2022-09-07T13:52:50.116Z,100254.38
2022-09-07T13:55:31.869Z,100255.84
2022-09-07T13:57:58.341Z,100252.88
2022-09-07T14:00:25.007Z,100248.91
2022-09-07T14:02:56.575Z,100253.06
2022-09-07T14:05:23.761Z,100243.31
2022-09-07T14:07:50.283Z,100242.41
2022-09-07T14:10:21.156Z,100245.41
2022-09-07T14:12:50.942Z,100237.47
2022-09-07T14:15:33.538Z,100231.03
2022-09-07T14:18:12.771Z,100240.22
2022-09-07T14:20:44.227Z,100240.25
2022-09-07T14:23:23.899Z,100240.38
2022-09-07T14:26:16.342Z,100245.75
2022-09-07T14:28:45.954Z,100236.50
2022-09-07T14:31:15.340Z,100240.97
2022-09-07T14:34:02.234Z,100236.72
2022-09-07T14:36:47.993Z,100236.72
2022-09-07T14:39:17.335Z,100234.41
2022-09-07T14:41:44.660Z,100238.56
2022-09-07T14:44:31.443Z,100225.41
2022-09-07T14:47:02.943Z,100233.88
2022-09-07T14:49:29.886Z,100235.19
2022-09-07T14:51:56.967Z,100234.03
2022-09-07T14:54:30.820Z,100237.16
2022-09-07T14:57:04.617Z,100234.34
2022-09-07T14:59:39.373Z,100225.22
2022-09-07T15:02:29.963Z,100231.56
2022-09-07T15:05:18.172Z,100221.50
2022-09-07T15:07:51.368Z,100227.38
2022-09-07T15:10:20.969Z,100226.88
2022-09-07T15:12:52.859Z,100238.41
2022-09-07T15:15:21.810Z,100232.38
2022-09-07T15:17:48.734Z,100232.66
2022-09-07T15:20:44.260Z,100227.81
2022-09-07T15:23:13.366Z,100228.09
2022-09-07T15:25:45.304Z,100221.22
2022-09-07T15:34:20.213Z,100219.69
2022-09-07T15:36:52.225Z,100224.00
2022-09-07T15:39:22.867Z,100231.22
2022-09-07T15:41:49.673Z,100229.72
2022-09-07T15:44:20.410Z,100229.66
2022-09-07T15:49:35.954Z,100232.91
2022-09-07T15:52:06.138Z,100233.25
2022-09-07T15:54:35.296Z,100230.47
2022-09-07T15:59:50.297Z,100232.78
2022-09-07T16:05:04.675Z,100237.88
2022-09-07T16:10:19.076Z,100237.63
2022-09-07T16:13:03.222Z,100238.03
2022-09-07T16:15:34.059Z,100234.75
2022-09-07T16:18:02.297Z,100227.91
2022-09-07T16:20:32.003Z,100230.25
2022-09-07T16:23:15.514Z,100228.13
2022-09-07T16:25:55.212Z,100225.56
2022-09-07T16:28:21.736Z,100219.41
2022-09-07T16:30:48.495Z,100220.97
2022-09-07T16:33:15.230Z,100221.41
2022-09-07T16:35:41.871Z,100221.22
2022-09-07T16:40:55.022Z,100212.41
2022-09-07T16:43:21.625Z,100216.81
2022-09-07T16:46:04.010Z,100204.56
2022-09-07T16:48:32.661Z,100198.00
2022-09-07T16:51:02.412Z,100199.03
2022-09-07T16:53:30.798Z,100201.13
2022-09-07T16:56:05.418Z,100189.06
2022-09-07T16:58:37.467Z,100187.97
2022-09-07T17:01:06.691Z,100193.34
2022-09-07T17:03:34.257Z,100190.00
2022-09-07T17:06:01.369Z,100181.72
2022-09-07T17:08:28.453Z,100187.59
2022-09-07T17:11:02.642Z,100186.84
2022-09-07T17:13:31.171Z,100183.31
2022-09-07T17:16:10.695Z,100189.03
2022-09-07T17:21:25.022Z,100199.63
2022-09-07T17:23:55.698Z,100200.63
2022-09-07T17:26:26.831Z,100201.06
2022-09-07T17:28:56.616Z,100205.72
2022-09-07T17:34:15.477Z,100204.59
2022-09-07T17:36:42.763Z,100207.06
2022-09-07T17:39:18.623Z,100208.91
2022-09-07T17:41:52.674Z,100217.84
2022-09-07T17:44:19.420Z,100219.53
2022-09-07T17:46:45.970Z,100223.09
2022-09-07T17:49:14.480Z,100221.59
2022-09-07T17:51:41.450Z,100234.88
2022-09-07T17:54:11.409Z,100240.63
2022-09-07T17:56:39.234Z,100231.28
2022-09-07T18:01:54.038Z,100230.88
2022-09-07T18:04:21.102Z,100242.81
2022-09-07T18:06:47.713Z,100250.91
2022-09-07T18:09:14.549Z,100252.81
2022-09-07T18:11:47.243Z,100246.56
2022-09-07T18:14:15.063Z,100251.66
2022-09-07T18:16:43.474Z,100250.34
2022-09-07T18:19:11.610Z,100259.50
2022-09-07T18:21:41.198Z,100253.50
2022-09-07T18:24:13.562Z,100256.63
2022-09-07T18:26:40.916Z,100258.69
2022-09-07T18:29:25.819Z,100266.00
2022-09-07T18:31:54.406Z,100257.94
2022-09-07T18:34:20.984Z,100256.25
2022-09-07T18:36:47.649Z,100258.00
2022-09-07T18:39:14.272Z,100252.81
2022-09-07T18:41:42.041Z,100251.56
2022-09-07T18:45:27.114Z,100252.25
2022-09-07T18:46:55.422Z,100251.56
2022-09-07T18:49:21.904Z,100249.47
2022-09-07T18:54:34.962Z,100249.25
2022-09-07T18:57:01.591Z,100247.88
2022-09-07T18:59:29.566Z,100247.47
2022-09-07T19:02:00.078Z,100251.94
2022-09-07T19:05:49.613Z,100248.38
2022-09-07T19:07:17.021Z,100244.19
2022-09-07T19:09:43.600Z,100254.56
2022-09-07T19:12:10.275Z,100250.41
2022-09-07T19:14:36.854Z,100243.91
2022-09-07T19:17:03.480Z,100238.25
2022-09-07T19:19:30.265Z,100236.56
2022-09-07T19:21:58.263Z,100239.75
2022-09-07T19:24:25.770Z,100238.78
2022-09-07T19:26:55.731Z,100245.59
2022-09-07T19:29:24.970Z,100250.22
2022-09-07T19:32:05.307Z,100251.50
2022-09-07T19:34:32.669Z,100248.63
2022-09-07T19:37:01.259Z,100243.97
2022-09-07T19:39:27.916Z,100242.31
2022-09-07T19:41:54.626Z,100244.81
2022-09-07T19:44:21.184Z,100243.81
2022-09-07T19:46:47.854Z,100239.13
2022-09-07T19:49:14.454Z,100239.81
2022-09-07T19:51:42.118Z,100243.59
2022-09-07T19:54:13.897Z,100239.16
2022-09-07T19:56:44.954Z,100242.56
2022-09-07T19:59:12.413Z,100233.91
2022-09-07T20:01:40.579Z,100241.69
2022-09-07T20:04:14.751Z,100234.09
2022-09-07T20:06:42.871Z,100234.72
2022-09-07T20:09:09.465Z,100230.91
2022-09-07T20:11:36.650Z,100242.94
2022-09-07T20:14:03.799Z,100237.06
2022-09-07T20:16:31.240Z,100240.63
2022-09-07T20:18:59.274Z,100244.63
2022-09-07T20:21:26.297Z,100242.56
2022-09-07T20:23:52.931Z,100238.59
2022-09-07T20:26:21.221Z,100245.97
2022-09-07T20:29:05.861Z,100240.53
2022-09-07T20:31:40.810Z,100238.47
2022-09-07T20:34:08.835Z,100248.56
2022-09-07T20:36:35.536Z,100240.19
2022-09-07T20:39:02.017Z,100238.28
2022-09-07T20:41:31.411Z,100237.22
2022-09-07T20:44:00.014Z,100234.72
2022-09-07T20:46:28.337Z,100230.06
2022-09-07T20:48:55.234Z,100233.44
2022-09-07T20:51:22.013Z,100226.91
2022-09-07T20:53:49.606Z,100223.78
2022-09-07T20:56:25.878Z,100221.03
2022-09-07T20:58:57.714Z,100221.66
2022-09-07T21:01:24.708Z,100231.13
2022-09-07T21:03:53.273Z,100232.19
2022-09-07T21:06:21.267Z,100230.28
2022-09-07T21:08:49.096Z,100222.06
2022-09-07T21:11:17.164Z,100220.56
2022-09-07T21:13:43.982Z,100221.22
2022-09-07T21:16:15.173Z,100207.53
2022-09-07T21:18:44.033Z,100214.44
2022-09-07T21:21:20.200Z,100214.22
2022-09-07T21:23:47.781Z,100205.81
2022-09-07T21:26:14.487Z,100203.69
2022-09-07T21:28:40.998Z,100211.66
2022-09-07T21:31:09.075Z,100212.28
2022-09-07T21:33:37.235Z,100215.69
2022-09-07T21:36:09.336Z,100211.22
2022-09-07T21:38:37.415Z,100221.72
2022-09-07T21:41:08.270Z,100213.91
2022-09-07T21:43:35.087Z,100217.69
2022-09-07T21:46:09.626Z,100217.81
2022-09-07T21:48:36.485Z,100226.19
2022-09-07T21:51:04.199Z,100217.34
2022-09-07T21:53:31.061Z,100213.94
2022-09-07T21:56:05.213Z,100213.94
2022-09-07T21:58:32.007Z,100216.22
2022-09-07T22:01:00.721Z,100217.28
2022-09-07T22:03:27.438Z,100208.47
2022-09-07T22:05:54.143Z,100214.06
2022-09-07T22:08:20.828Z,100210.91
2022-09-07T22:10:47.362Z,100216.56
2022-09-07T22:13:13.992Z,100218.66
2022-09-07T22:15:41.569Z,100228.06
2022-09-07T22:18:12.155Z,100231.19
2022-09-07T22:20:39.006Z,100232.84
2022-09-07T22:23:05.752Z,100222.91
2022-09-07T22:25:33.103Z,100222.25
2022-09-07T22:27:59.727Z,100215.78
2022-09-07T22:30:26.471Z,100208.78
2022-09-07T22:32:53.022Z,100217.56
2022-09-07T22:35:20.305Z,100214.84
2022-09-07T22:37:46.861Z,100227.81
2022-09-07T22:40:14.799Z,100225.03
2022-09-07T22:42:41.923Z,100222.47
2022-09-07T22:45:09.304Z,100219.94
2022-09-07T22:47:35.966Z,100213.41
2022-09-07T22:50:02.505Z,100216.31
2022-09-07T22:52:28.994Z,100204.97
2022-09-07T22:54:55.492Z,100199.25
2022-09-07T22:57:22.047Z,100209.03
2022-09-07T22:59:48.625Z,100193.34
2022-09-07T23:02:15.134Z,100200.41
2022-09-07T23:04:42.185Z,100200.41
2022-09-07T23:07:08.916Z,100203.09
2022-09-07T23:09:35.557Z,100193.63
2022-09-07T23:12:02.299Z,100192.53
2022-09-07T23:14:28.807Z,100193.75
2022-09-07T23:16:55.278Z,100186.41
2022-09-07T23:19:21.949Z,100179.88
2022-09-07T23:21:49.043Z,100181.47
2022-09-07T23:24:17.607Z,100178.97
2022-09-07T23:26:44.614Z,100174.94
2022-09-07T23:29:12.799Z,100174.47
2022-09-07T23:31:40.333Z,100156.28
2022-09-07T23:34:07.677Z,100171.22
2022-09-07T23:36:34.362Z,100160.47
2022-09-07T23:39:01.266Z,100169.13
2022-09-07T23:41:28.882Z,100163.84
2022-09-07T23:43:56.957Z,100157.84
2022-09-07T23:46:24.101Z,100159.72
2022-09-07T23:48:50.762Z,100152.59
2022-09-07T23:51:22.847Z,100152.41
2022-09-07T23:53:50.976Z,100158.03
2022-09-07T23:56:17.471Z,100165.38
2022-09-07T23:58:44.046Z,100161.06
